Time;durP1;ratioP1;P1;durP2;ratioP2;P2;SDS_P1;SDS_P2;PMS_P1;PMS_P2;Temp;Humidity;BMP_temperature;BMP_pressure;BME280_temperature;BME280_humidity;BME280_pressure;Samples;Min_cycle;Max_cycle;Signal;HPM_P1;HPM_P2
2022/12/19 00:01:55;;;;;;;66.43;29.13;;;-4.70;99.90;;;;;;5033337;28;20025;-75
2022/12/19 00:04:20;;;;;;;75.00;31.27;;;-4.70;99.90;;;;;;5033894;28;20425;-74
2022/12/19 00:06:46;;;;;;;71.10;29.80;;;-4.70;99.90;;;;;;5033732;28;20553;-75
2022/12/19 00:09:12;;;;;;;76.57;31.07;;;-4.60;99.90;;;;;;5032284;28;20033;-74
2022/12/19 00:11:38;;;;;;;94.73;38.27;;;-4.70;99.90;;;;;;5032635;28;20030;-75
2022/12/19 00:14:04;;;;;;;112.33;41.67;;;-4.70;99.90;;;;;;5023350;28;20044;-75
2022/12/19 00:16:30;;;;;;;120.93;45.70;;;-4.70;99.90;;;;;;5033434;28;20040;-75
2022/12/19 00:18:58;;;;;;;76.73;31.23;;;-4.70;99.90;;;;;;5025114;28;20032;-75
2022/12/19 00:21:26;;;;;;;80.47;31.87;;;-4.70;99.90;;;;;;5034475;28;20021;-75
2022/12/19 00:23:52;;;;;;;67.97;27.73;;;-4.60;99.90;;;;;;5033354;28;20449;-77
2022/12/19 00:26:26;;;;;;;75.87;31.10;;;-4.70;99.90;;;;;;5032669;28;20017;-77
2022/12/19 00:28:58;;;;;;;73.57;30.02;;;-4.70;99.90;;;;;;5031818;28;20474;-76
2022/12/19 00:31:26;;;;;;;78.27;32.00;;;-4.70;99.90;;;;;;5022168;28;20393;-77
2022/12/19 00:33:51;;;;;;;76.07;32.73;;;-4.70;99.90;;;;;;5032318;28;20025;-76
2022/12/19 00:36:22;;;;;;;72.80;31.80;;;-4.70;99.90;;;;;;5020409;28;20481;-76
2022/12/19 00:38:49;;;;;;;78.50;30.57;;;-4.70;99.90;;;;;;5032286;28;20026;-76
2022/12/19 00:41:21;;;;;;;81.50;32.10;;;-4.70;99.90;;;;;;5035127;28;20025;-76
2022/12/19 00:43:54;;;;;;;79.47;32.80;;;-4.70;99.90;;;;;;5037220;28;20027;-77
2022/12/19 00:46:20;;;;;;;86.80;33.43;;;-4.60;99.90;;;;;;5031402;28;20407;-77
2022/12/19 00:48:45;;;;;;;74.30;32.20;;;-4.70;99.90;;;;;;5023317;28;20049;-76
2022/12/19 00:51:14;;;;;;;74.97;31.30;;;-4.70;99.90;;;;;;5050117;28;20035;-77
2022/12/19 00:53:40;;;;;;;76.63;30.43;;;-4.70;99.90;;;;;;5038023;28;20026;-76
2022/12/19 00:56:08;;;;;;;78.93;30.53;;;-4.70;99.90;;;;;;5036218;28;20025;-76
2022/12/19 00:58:34;;;;;;;80.00;31.13;;;-4.70;99.90;;;;;;5030178;28;20041;-77
2022/12/19 01:01:10;;;;;;;87.07;36.27;;;-4.80;99.90;;;;;;5039191;28;20431;-76
2022/12/19 01:03:36;;;;;;;81.77;33.20;;;-4.90;99.90;;;;;;5040820;28;20108;-77
2022/12/19 01:06:01;;;;;;;75.97;32.73;;;-4.80;99.90;;;;;;5039381;28;20104;-76
2022/12/19 01:08:27;;;;;;;86.73;35.47;;;-4.90;99.90;;;;;;5038359;28;20052;-77
2022/12/19 01:10:53;;;;;;;80.83;32.00;;;-4.90;99.90;;;;;;5033286;28;20030;-77
2022/12/19 01:13:20;;;;;;;86.70;32.87;;;-4.90;99.90;;;;;;5043250;28;20033;-77
2022/12/19 01:15:46;;;;;;;72.00;28.80;;;-4.90;99.90;;;;;;5025947;28;20424;-76
2022/12/19 01:18:12;;;;;;;73.57;29.53;;;-4.90;99.90;;;;;;5035117;28;20161;-77
2022/12/19 01:20:40;;;;;;;67.37;28.07;;;-4.90;99.90;;;;;;5033218;28;20366;-77
2022/12/19 01:23:06;;;;;;;72.80;30.53;;;-5.00;99.90;;;;;;5037714;28;20044;-76
2022/12/19 01:25:36;;;;;;;71.03;29.10;;;-4.90;99.90;;;;;;5033076;28;20025;-76
2022/12/19 01:28:03;;;;;;;68.33;29.67;;;-4.90;99.90;;;;;;5039675;28;20040;-76
2022/12/19 01:30:29;;;;;;;72.37;29.87;;;-4.90;99.90;;;;;;5032354;28;20025;-77
2022/12/19 01:32:55;;;;;;;76.80;30.13;;;-4.90;99.90;;;;;;5029939;28;20026;-76
2022/12/19 01:35:21;;;;;;;75.37;30.63;;;-4.90;99.90;;;;;;5027357;28;20041;-76
2022/12/19 01:37:47;;;;;;;73.17;29.63;;;-4.90;99.90;;;;;;5028894;28;20025;-77
2022/12/19 01:40:13;;;;;;;68.57;27.27;;;-4.90;99.90;;;;;;5026453;28;20529;-76
2022/12/19 01:42:38;;;;;;;63.23;28.03;;;-4.90;99.90;;;;;;5027404;28;20456;-76
2022/12/19 01:45:07;;;;;;;65.43;28.53;;;-4.80;99.90;;;;;;5026738;28;20122;-76
2022/12/19 01:48:02;;;;;;;59.33;27.33;;;-4.80;99.90;;;;;;5027197;28;20021;-76
2022/12/19 01:50:35;;;;;;;64.67;27.20;;;-4.80;99.90;;;;;;5016511;28;20037;-76
2022/12/19 01:53:02;;;;;;;67.97;28.77;;;-4.90;99.90;;;;;;5027039;28;20129;-76
2022/12/19 01:55:28;;;;;;;64.67;27.73;;;-4.90;99.90;;;;;;5027625;28;20037;-76
2022/12/19 01:57:55;;;;;;;65.20;27.03;;;-4.90;99.90;;;;;;5027812;28;20033;-76
2022/12/19 02:00:21;;;;;;;68.30;30.13;;;-4.90;99.90;;;;;;5028008;28;20022;-77
2022/12/19 02:03:04;;;;;;;66.03;28.13;;;-4.90;99.90;;;;;;5015702;28;20408;-76
2022/12/19 02:05:30;;;;;;;67.20;28.40;;;-4.90;99.90;;;;;;5038810;28;20040;-76
2022/12/19 02:07:56;;;;;;;63.77;27.83;;;-5.00;99.90;;;;;;5032236;28;20080;-76
2022/12/19 02:10:21;;;;;;;66.83;29.37;;;-4.90;99.90;;;;;;5027757;28;20513;-76
2022/12/19 02:12:47;;;;;;;70.53;28.63;;;-5.00;99.90;;;;;;5029110;28;20029;-76
2022/12/19 02:15:14;;;;;;;65.70;28.03;;;-5.00;99.90;;;;;;5016292;28;20033;-76
2022/12/19 02:18:18;;;;;;;64.83;28.37;;;-5.00;99.90;;;;;;5028170;28;20068;-76
2022/12/19 02:21:08;;;;;;;68.77;28.70;;;-5.00;99.90;;;;;;5015803;28;20486;-76
2022/12/19 02:24:01;;;;;;;65.63;29.23;;;-5.00;99.90;;;;;;5027505;28;20025;-76
2022/12/19 02:26:47;;;;;;;68.90;29.67;;;-5.10;99.90;;;;;;5027841;28;20060;-76
2022/12/19 02:29:41;;;;;;;67.28;28.15;;;-5.10;99.90;;;;;;5031308;28;20025;-76
2022/12/19 02:32:28;;;;;;;64.37;28.23;;;-5.10;99.90;;;;;;5054192;28;20033;-76
2022/12/19 02:35:04;;;;;;;68.50;29.13;;;-5.10;99.90;;;;;;5030154;28;20017;-76
2022/12/19 02:37:31;;;;;;;;;;;-5.10;99.90;;;;;;5031265;28;20500;-77
2022/12/19 02:40:13;;;;;;;64.80;26.57;;;-5.10;99.90;;;;;;5031350;28;19919;-76
2022/12/19 02:42:44;;;;;;;68.20;28.63;;;-5.10;99.90;;;;;;5030442;28;20029;-77
2022/12/19 02:45:12;;;;;;;76.00;30.03;;;-5.10;99.90;;;;;;5030359;28;20477;-76
2022/12/19 02:47:39;;;;;;;68.97;30.07;;;-5.10;99.90;;;;;;5023188;28;20032;-76
2022/12/19 02:50:06;;;;;;;67.40;28.37;;;-5.10;99.90;;;;;;5031276;28;20453;-76
2022/12/19 02:52:31;;;;;;;72.40;30.73;;;-5.00;99.90;;;;;;5031632;28;20025;-76
2022/12/19 02:55:08;;;;;;;68.20;31.63;;;-5.10;99.90;;;;;;5030463;28;20121;-76
2022/12/19 02:57:43;;;;;;;73.30;29.37;;;-5.10;99.90;;;;;;5030785;28;20075;-76
2022/12/19 03:00:23;;;;;;;73.03;31.60;;;-5.10;99.90;;;;;;5020544;28;20735;-77
2022/12/19 03:02:57;;;;;;;64.97;29.67;;;-5.10;99.90;;;;;;5019633;28;20021;-77
2022/12/19 03:05:42;;;;;;;70.85;31.88;;;-5.10;99.90;;;;;;5030378;28;20762;-76
2022/12/19 03:08:21;;;;;;;71.53;30.00;;;-5.10;99.90;;;;;;5029395;28;20463;-76
2022/12/19 03:11:09;;;;;;;78.00;32.03;;;-5.10;99.90;;;;;;5029588;28;20030;-76
2022/12/19 03:13:54;;;;;;;68.63;30.83;;;-5.10;99.90;;;;;;5029324;28;20498;-76
2022/12/19 03:16:20;;;;;;;70.60;31.30;;;-5.10;99.90;;;;;;5052315;28;20029;-76
2022/12/19 03:18:45;;;;;;;72.40;30.37;;;-5.10;99.90;;;;;;5029936;28;20034;-76
2022/12/19 03:21:24;;;;;;;75.63;32.47;;;-5.10;99.90;;;;;;5019484;28;20455;-76
2022/12/19 03:23:51;;;;;;;76.87;33.20;;;-5.10;99.90;;;;;;5029474;28;20037;-76
2022/12/19 03:26:20;;;;;;;73.53;33.80;;;-5.10;99.90;;;;;;5031001;28;20040;-76
2022/12/19 03:29:17;;;;;;;76.13;32.03;;;-5.00;99.90;;;;;;5031377;28;20025;-76
2022/12/19 03:31:44;;;;;;;71.87;30.87;;;-5.00;99.90;;;;;;5016517;28;20049;-76
2022/12/19 03:34:38;;;;;;;83.77;34.70;;;-5.00;99.90;;;;;;5030553;28;20036;-76
2022/12/19 03:37:06;;;;;;;72.90;32.23;;;-5.00;99.90;;;;;;5028048;28;20029;-76
2022/12/19 03:39:33;;;;;;;77.60;33.73;;;-5.00;99.90;;;;;;5029313;28;20390;-76
2022/12/19 03:44:48;;;;;;;71.00;33.33;;;-5.00;99.90;;;;;;5029883;28;20084;-76
2022/12/19 03:47:25;;;;;;;70.07;32.70;;;-5.00;99.90;;;;;;5030066;28;20065;-76
2022/12/19 03:49:51;;;;;;;73.53;32.93;;;-5.00;99.90;;;;;;5026533;28;20053;-76
2022/12/19 03:52:42;;;;;;;69.17;31.53;;;-4.90;99.90;;;;;;5028943;28;21473;-76
2022/12/19 03:55:15;;;;;;;67.80;30.47;;;-4.90;99.90;;;;;;5027467;28;20386;-77
2022/12/19 03:57:57;;;;;;;71.73;31.77;;;-4.90;99.90;;;;;;5029479;28;20083;-76
2022/12/19 04:00:24;;;;;;;73.37;31.60;;;-4.90;99.90;;;;;;5028410;28;20021;-76
2022/12/19 04:02:53;;;;;;;75.90;33.07;;;-4.90;99.90;;;;;;5029486;28;20356;-76
2022/12/19 04:05:22;;;;;;;71.40;30.90;;;-4.90;99.90;;;;;;5028987;28;20029;-76
2022/12/19 04:07:50;;;;;;;72.30;32.57;;;-4.80;99.90;;;;;;5028740;28;20112;-76
2022/12/19 04:10:19;;;;;;;72.57;31.70;;;-4.80;99.90;;;;;;5017438;28;20068;-76
2022/12/19 04:12:51;;;;;;;74.50;32.37;;;-4.80;99.90;;;;;;5028246;28;20116;-76
2022/12/19 04:15:18;;;;;;;76.27;32.13;;;-4.80;99.90;;;;;;5028428;28;20041;-77
2022/12/19 04:17:53;;;;;;;72.10;31.63;;;-4.80;99.90;;;;;;5027861;28;20064;-77
2022/12/19 04:20:23;;;;;;;78.93;34.25;;;-4.80;99.90;;;;;;5028739;28;20498;-77
2022/12/19 04:22:51;;;;;;;76.17;32.80;;;-4.80;99.90;;;;;;5028256;28;20033;-76
2022/12/19 04:25:23;;;;;;;73.03;31.67;;;-4.70;99.90;;;;;;5029130;28;20053;-76
2022/12/19 04:27:56;;;;;;;68.87;29.60;;;-4.70;99.90;;;;;;5028457;28;20125;-76
2022/12/19 04:30:21;;;;;;;70.17;30.73;;;-4.60;99.90;;;;;;5025686;28;20018;-76
2022/12/19 04:32:49;;;;;;;70.57;31.63;;;-4.60;99.90;;;;;;5015091;28;20646;-77
2022/12/19 04:35:15;;;;;;;68.77;31.73;;;-4.60;99.90;;;;;;5026915;28;20117;-77
2022/12/19 04:37:41;;;;;;;82.07;32.90;;;-4.50;99.90;;;;;;5016708;28;20522;-76
2022/12/19 04:40:08;;;;;;;74.17;30.73;;;-4.50;99.90;;;;;;5027748;28;20056;-77
2022/12/19 04:42:34;;;;;;;73.10;30.77;;;-4.50;99.90;;;;;;5027596;28;20464;-76
2022/12/19 04:45:00;;;;;;;82.57;39.67;;;-4.40;99.90;;;;;;5027182;28;20021;-76
2022/12/19 04:47:25;;;;;;;78.83;33.53;;;-4.40;99.90;;;;;;5027982;28;20369;-76
2022/12/19 04:49:51;;;;;;;71.83;29.43;;;-4.40;99.90;;;;;;5025494;28;20053;-76
2022/12/19 04:52:16;;;;;;;78.07;32.73;;;-4.40;99.90;;;;;;5026918;28;20055;-77
2022/12/19 04:54:42;;;;;;;71.70;29.30;;;-4.40;99.90;;;;;;5026908;28;20025;-76
2022/12/19 04:57:07;;;;;;;78.43;31.77;;;-4.30;99.90;;;;;;5025751;28;20181;-76
2022/12/19 04:59:33;;;;;;;73.63;30.20;;;-4.30;99.90;;;;;;5026535;28;20025;-76
2022/12/19 05:01:59;;;;;;;83.73;32.93;;;-4.30;99.90;;;;;;5026462;28;20080;-77
2022/12/19 05:04:24;;;;;;;75.93;32.63;;;-4.30;99.90;;;;;;5017304;28;20113;-76
2022/12/19 05:06:50;;;;;;;95.33;42.13;;;-4.20;99.90;;;;;;5027603;28;20469;-76
2022/12/19 05:09:16;;;;;;;74.10;32.67;;;-4.30;99.90;;;;;;5015752;28;20067;-76
2022/12/19 05:11:41;;;;;;;71.97;31.13;;;-4.20;99.90;;;;;;5026902;28;20023;-76
2022/12/19 05:14:07;;;;;;;75.90;32.20;;;-4.20;99.90;;;;;;5025889;28;20475;-76
2022/12/19 05:16:36;;;;;;;75.50;31.87;;;-4.20;99.90;;;;;;5016792;28;20033;-76
2022/12/19 05:19:02;;;;;;;74.47;30.00;;;-4.10;99.90;;;;;;5009611;28;20133;-77
2022/12/19 05:21:27;;;;;;;77.30;30.27;;;-4.10;99.90;;;;;;5025249;28;20077;-76
2022/12/19 05:23:53;;;;;;;76.53;30.80;;;-4.10;99.90;;;;;;5026232;28;20022;-77
2022/12/19 05:26:19;;;;;;;71.17;29.37;;;-4.10;99.90;;;;;;5025128;28;20140;-77
2022/12/19 05:28:46;;;;;;;69.97;30.20;;;-4.00;99.90;;;;;;5034803;28;20470;-75
2022/12/19 05:31:14;;;;;;;79.60;33.97;;;-4.00;99.90;;;;;;5036320;28;20022;-75
2022/12/19 05:33:41;;;;;;;85.37;37.07;;;-4.00;99.90;;;;;;5024201;28;20025;-75
2022/12/19 05:36:07;;;;;;;71.20;30.77;;;-4.00;99.90;;;;;;5034224;28;20474;-75
2022/12/19 05:38:33;;;;;;;71.93;30.50;;;-3.90;99.90;;;;;;5031802;28;20017;-75
2022/12/19 05:41:04;;;;;;;68.07;30.50;;;-4.00;99.90;;;;;;5037953;28;20052;-75
2022/12/19 05:43:30;;;;;;;64.87;29.23;;;-3.90;99.90;;;;;;5022306;28;20026;-75
2022/12/19 05:45:56;;;;;;;77.33;30.60;;;-3.90;99.90;;;;;;5032648;28;20557;-75
2022/12/19 05:48:21;;;;;;;78.93;32.43;;;-3.90;99.90;;;;;;5035460;28;20061;-75
2022/12/19 05:50:49;;;;;;;71.33;30.70;;;-3.90;99.90;;;;;;5033193;28;20029;-75
2022/12/19 05:53:16;;;;;;;67.47;30.67;;;-3.90;99.90;;;;;;5030423;28;20026;-75
2022/12/19 05:55:41;;;;;;;65.80;29.03;;;-3.80;99.90;;;;;;5030284;28;20033;-77
2022/12/19 05:58:07;;;;;;;71.83;30.40;;;-3.80;99.90;;;;;;5028641;28;20366;-76
2022/12/19 06:00:32;;;;;;;76.17;31.40;;;-3.80;99.90;;;;;;5031436;28;20537;-77
2022/12/19 06:02:58;;;;;;;77.97;31.47;;;-3.80;99.90;;;;;;5036155;28;20037;-76
2022/12/19 06:05:24;;;;;;;74.53;30.50;;;-3.70;99.90;;;;;;5036718;28;20033;-76
2022/12/19 06:07:49;;;;;;;81.50;30.57;;;-3.70;99.90;;;;;;5033474;28;20045;-76
2022/12/19 06:10:15;;;;;;;72.33;30.07;;;-3.70;99.90;;;;;;5035770;28;20072;-76
2022/12/19 06:12:40;;;;;;;73.60;30.33;;;-3.70;99.90;;;;;;5034163;28;20025;-76
2022/12/19 06:15:06;;;;;;;72.00;29.97;;;-3.70;99.90;;;;;;5032238;28;20060;-77
2022/12/19 06:17:32;;;;;;;73.93;30.83;;;-3.70;99.90;;;;;;5029250;28;20033;-76
2022/12/19 06:19:57;;;;;;;76.53;31.13;;;-3.60;99.90;;;;;;5031793;28;20387;-77
2022/12/19 06:22:23;;;;;;;70.00;30.27;;;-3.60;99.90;;;;;;5031375;28;20021;-77
2022/12/19 06:24:49;;;;;;;76.73;31.80;;;-3.60;99.90;;;;;;5033775;28;20057;-77
2022/12/19 06:27:17;;;;;;;75.90;30.77;;;-3.60;99.90;;;;;;5029759;28;20033;-77
2022/12/19 06:29:42;;;;;;;73.70;29.77;;;-3.50;99.90;;;;;;5016247;28;20478;-75
2022/12/19 06:32:08;;;;;;;72.77;29.50;;;-3.50;99.90;;;;;;5019386;28;20039;-76
2022/12/19 06:34:33;;;;;;;78.03;30.63;;;-3.50;99.90;;;;;;5020845;28;20580;-76
2022/12/19 06:36:59;;;;;;;71.20;29.33;;;-3.50;99.90;;;;;;5020927;28;20088;-75
2022/12/19 06:39:24;;;;;;;68.50;29.33;;;-3.40;99.90;;;;;;5020572;28;20095;-76
2022/12/19 06:44:35;;;;;;;68.17;28.63;;;-3.40;99.90;;;;;;5021008;28;20120;-76
2022/12/19 06:47:00;;;;;;;72.63;30.27;;;-3.40;99.90;;;;;;5003377;28;20048;-76
2022/12/19 06:49:26;;;;;;;66.30;30.07;;;-3.40;99.90;;;;;;5018863;28;20039;-75
2022/12/19 06:51:52;;;;;;;68.07;29.97;;;-3.40;99.90;;;;;;5021516;28;20125;-75
2022/12/19 06:54:17;;;;;;;69.03;29.90;;;-3.40;99.90;;;;;;5016349;28;20029;-75
2022/12/19 06:56:43;;;;;;;71.90;31.47;;;-3.40;99.90;;;;;;5019755;28;20163;-75
2022/12/19 06:59:11;;;;;;;65.00;29.07;;;-3.30;99.90;;;;;;5017014;28;20108;-75
2022/12/19 07:02:05;;;;;;;78.47;34.17;;;-3.30;99.90;;;;;;5019559;28;20048;-75
2022/12/19 07:04:36;;;;;;;70.37;30.80;;;-3.30;99.90;;;;;;4983802;28;20037;-75
2022/12/19 07:07:02;;;;;;;77.20;32.60;;;-3.30;99.90;;;;;;5020590;28;20045;-76
2022/12/19 07:09:29;;;;;;;82.30;35.33;;;-3.20;99.90;;;;;;5019694;28;20038;-75
2022/12/19 07:11:54;;;;;;;77.27;33.40;;;-3.20;99.90;;;;;;5001027;28;20454;-75
2022/12/19 07:14:20;;;;;;;80.50;36.40;;;-3.20;99.90;;;;;;5016546;28;20033;-75
2022/12/19 07:16:48;;;;;;;72.73;31.20;;;-3.20;99.90;;;;;;5019007;28;20457;-76
2022/12/19 07:19:14;;;;;;;76.33;33.50;;;-3.20;99.90;;;;;;5037576;28;20032;-75
2022/12/19 07:21:40;;;;;;;74.73;32.57;;;-3.10;99.90;;;;;;5020591;28;20026;-76
2022/12/19 07:24:06;;;;;;;74.17;33.17;;;-3.10;99.90;;;;;;5018317;28;20079;-75
2022/12/19 07:26:32;;;;;;;70.87;31.70;;;-3.00;99.90;;;;;;5017241;28;21039;-75
2022/12/19 07:28:58;;;;;;;73.20;32.40;;;-3.00;99.90;;;;;;5018025;28;20021;-76
2022/12/19 07:31:24;;;;;;;73.07;32.17;;;-3.00;99.90;;;;;;5019670;28;20474;-75
2022/12/19 07:33:50;;;;;;;67.13;31.23;;;-3.00;99.90;;;;;;5018384;28;20030;-75
2022/12/19 07:36:15;;;;;;;69.20;32.77;;;-2.90;99.90;;;;;;5003833;28;20124;-75
2022/12/19 07:38:41;;;;;;;72.53;31.63;;;-2.90;99.90;;;;;;5018313;28;20026;-75
2022/12/19 07:41:06;;;;;;;74.40;33.27;;;-2.90;99.90;;;;;;5026813;28;20025;-76
2022/12/19 07:43:32;;;;;;;74.00;34.30;;;-2.80;99.90;;;;;;5025573;28;20025;-76
2022/12/19 07:45:57;;;;;;;73.80;33.67;;;-2.80;99.90;;;;;;5028890;28;20020;-76
2022/12/19 07:48:23;;;;;;;90.47;43.03;;;-2.80;99.90;;;;;;5025216;28;20032;-76
2022/12/19 07:50:49;;;;;;;89.27;40.53;;;-2.70;99.90;;;;;;5014716;28;20083;-76
2022/12/19 07:53:15;;;;;;;77.57;35.83;;;-2.70;99.90;;;;;;5012623;28;20029;-75
2022/12/19 07:55:41;;;;;;;68.47;32.87;;;-2.60;99.90;;;;;;5025326;28;20115;-76
2022/12/19 07:58:09;;;;;;;66.30;33.07;;;-2.60;99.90;;;;;;5013802;28;20514;-76
2022/12/19 08:00:35;;;;;;;73.57;34.70;;;-2.50;99.90;;;;;;5026143;28;20018;-75
2022/12/19 08:03:01;;;;;;;79.30;37.27;;;-2.50;99.90;;;;;;5024650;28;20014;-76
2022/12/19 08:05:26;;;;;;;73.47;35.50;;;-2.40;99.90;;;;;;5025795;28;20402;-76
2022/12/19 08:07:52;;;;;;;72.17;35.93;;;-2.40;99.90;;;;;;5026183;28;20113;-76
2022/12/19 08:10:18;;;;;;;71.50;35.23;;;-2.30;99.90;;;;;;5027355;28;20025;-76
2022/12/19 08:12:45;;;;;;;68.90;34.97;;;-2.20;99.90;;;;;;5024643;28;20094;-76
2022/12/19 08:15:10;;;;;;;75.77;36.40;;;-2.20;99.90;;;;;;5025301;28;20032;-76
2022/12/19 08:17:37;;;;;;;74.90;37.33;;;-2.10;99.90;;;;;;5024252;28;20403;-76
2022/12/19 08:20:04;;;;;;;73.97;36.23;;;-2.00;99.90;;;;;;5025833;28;20128;-76
2022/12/19 08:22:30;;;;;;;73.43;35.10;;;-1.90;99.90;;;;;;5024373;28;20044;-76
2022/12/19 08:24:56;;;;;;;71.90;32.87;;;-1.90;99.90;;;;;;5026444;28;20021;-76
2022/12/19 08:27:22;;;;;;;70.53;33.00;;;-1.80;99.90;;;;;;5024974;28;20026;-77
2022/12/19 08:29:48;;;;;;;66.93;30.80;;;-1.70;99.90;;;;;;5024796;28;20109;-77
2022/12/19 08:32:14;;;;;;;65.93;30.13;;;-1.60;99.90;;;;;;5025616;28;20733;-76
2022/12/19 08:34:40;;;;;;;64.23;29.20;;;-1.50;99.90;;;;;;5026159;28;20038;-76
2022/12/19 08:37:06;;;;;;;60.77;28.23;;;-1.40;99.90;;;;;;5025077;28;20025;-77
2022/12/19 08:39:31;;;;;;;71.23;34.40;;;-1.30;99.90;;;;;;5023829;28;20047;-77
2022/12/19 08:41:57;;;;;;;64.37;32.63;;;-1.20;99.90;;;;;;5024356;28;20174;-77
2022/12/19 08:44:23;;;;;;;65.50;33.60;;;-1.20;99.90;;;;;;5025741;28;20076;-77
2022/12/19 08:46:48;;;;;;;66.57;33.00;;;-1.10;99.90;;;;;;5016346;28;20033;-77
2022/12/19 08:49:14;;;;;;;70.00;34.07;;;-1.10;99.90;;;;;;5026179;28;20032;-77
2022/12/19 08:51:39;;;;;;;63.10;32.13;;;-1.00;99.90;;;;;;5021496;28;20052;-77
2022/12/19 08:54:05;;;;;;;68.93;33.47;;;-1.00;99.90;;;;;;5005990;28;20028;-77
2022/12/19 08:56:31;;;;;;;64.90;33.20;;;-0.90;99.90;;;;;;5018957;28;20481;-77
2022/12/19 08:58:57;;;;;;;64.23;31.47;;;-0.90;99.90;;;;;;5018054;28;20026;-77
2022/12/19 09:01:22;;;;;;;66.13;31.90;;;-0.80;99.90;;;;;;5005253;28;21428;-77
2022/12/19 09:03:48;;;;;;;69.43;32.30;;;-0.80;99.90;;;;;;5019711;28;20161;-77
2022/12/19 09:06:15;;;;;;;71.27;34.43;;;-0.80;99.90;;;;;;5018672;28;20037;-77
2022/12/19 09:08:41;;;;;;;62.40;32.10;;;-0.70;99.90;;;;;;5018215;28;20099;-77
2022/12/19 09:11:13;;;;;;;63.83;31.23;;;-0.60;99.90;;;;;;5018526;28;20394;-78
2022/12/19 09:13:40;;;;;;;59.00;29.83;;;-0.60;99.90;;;;;;5017462;28;20053;-78
2022/12/19 09:16:09;;;;;;;60.23;29.93;;;-0.50;99.90;;;;;;5018737;28;20042;-77
2022/12/19 09:18:35;;;;;;;60.97;28.93;;;-0.40;99.90;;;;;;5017444;28;20088;-77
2022/12/19 09:21:01;;;;;;;58.17;29.23;;;-0.30;99.90;;;;;;5018573;28;20052;-77
2022/12/19 09:23:27;;;;;;;55.93;28.20;;;-0.20;99.90;;;;;;5024850;28;20045;-77
2022/12/19 09:26:01;;;;;;;60.77;29.87;;;-0.10;99.90;;;;;;5023295;28;20072;-78
2022/12/19 09:28:26;;;;;;;58.93;28.77;;;-0.10;99.90;;;;;;5020124;28;20022;-77
2022/12/19 09:31:00;;;;;;;60.70;30.07;;;0.00;99.90;;;;;;5018163;28;21026;-77
2022/12/19 09:33:27;;;;;;;63.53;33.43;;;0.10;99.90;;;;;;5018879;28;20457;-77
2022/12/19 09:35:55;;;;;;;62.77;32.37;;;0.10;99.90;;;;;;5004345;28;20072;-78
2022/12/19 09:38:22;;;;;;;58.13;30.87;;;0.20;99.90;;;;;;5018654;28;20034;-77
2022/12/19 09:40:56;;;;;;;58.70;30.20;;;0.20;99.90;;;;;;5005758;28;20032;-77
2022/12/19 09:43:59;;;;;;;43.92;22.42;;;0.30;99.90;;;;;;5037481;28;20112;-78
2022/12/19 09:46:36;;;;;;;58.50;31.47;;;0.30;99.90;;;;;;5018428;28;20030;-78
2022/12/19 09:49:02;;;;;;;64.60;31.23;;;0.30;99.90;;;;;;5017750;28;20553;-78
2022/12/19 09:51:39;;;;;;;58.50;30.97;;;0.40;99.90;;;;;;5019478;28;20033;-78
2022/12/19 09:54:15;;;;;;;64.20;33.30;;;0.40;99.90;;;;;;5020368;28;20021;-78
2022/12/19 09:56:43;;;;;;;61.00;32.30;;;0.40;99.90;;;;;;5019679;28;20124;-78
2022/12/19 09:59:23;;;;;;;60.63;32.73;;;0.40;99.90;;;;;;5021643;28;20028;-78
2022/12/19 10:02:01;;;;;;;55.63;29.53;;;0.40;99.90;;;;;;5020886;28;20022;-78
2022/12/19 10:04:31;;;;;;;56.60;29.20;;;0.50;99.90;;;;;;5020717;28;20025;-78
2022/12/19 10:06:57;;;;;;;59.07;29.90;;;0.60;99.90;;;;;;5019493;28;20057;-78
2022/12/19 10:09:31;;;;;;;60.37;32.20;;;0.70;99.90;;;;;;5018812;28;20104;-79
2022/12/19 10:12:15;;;;;;;57.37;29.83;;;0.70;99.90;;;;;;5004105;28;20048;-79
2022/12/19 10:15:01;;;;;;;58.00;30.83;;;0.80;99.90;;;;;;5019700;28;20478;-79
2022/12/19 10:17:41;;;;;;;58.85;31.88;;;0.90;99.90;;;;;;5024043;28;20025;-78
2022/12/19 10:20:29;;;;;;;56.43;28.80;;;1.00;99.90;;;;;;5021307;28;20026;-78
2022/12/19 10:23:20;;;;;;;56.00;31.07;;;1.10;99.90;;;;;;5022148;28;20096;-78
2022/12/19 10:26:08;;;;;;;59.07;30.43;;;1.20;99.90;;;;;;5008118;28;20623;-79
2022/12/19 10:28:52;;;;;;;173.50;81.50;;;1.20;99.90;;;;;;5043390;28;20120;-79
2022/12/19 10:31:21;;;;;;;71.80;37.43;;;1.30;99.90;;;;;;5023429;28;20056;-79
2022/12/19 10:33:57;;;;;;;66.77;36.47;;;1.30;99.90;;;;;;5021688;28;20111;-79
2022/12/19 10:36:23;;;;;;;;;;;1.40;99.90;;;;;;5020614;28;20045;-79
2022/12/19 10:39:07;;;;;;;66.30;33.50;;;1.30;99.90;;;;;;5017679;28;19912;-79
2022/12/19 10:41:33;;;;;;;69.93;35.07;;;1.30;99.90;;;;;;5018178;28;20022;-79
2022/12/19 10:44:05;;;;;;;68.57;33.93;;;1.30;99.90;;;;;;5017783;28;20052;-79
2022/12/19 10:46:34;;;;;;;69.63;34.57;;;1.30;99.90;;;;;;5019653;28;20025;-79
2022/12/19 10:49:01;;;;;;;67.57;33.30;;;1.30;99.90;;;;;;5022708;28;20037;-79
2022/12/19 10:51:29;;;;;;;67.37;34.73;;;1.30;99.90;;;;;;5024520;28;20025;-79
2022/12/19 10:53:57;;;;;;;66.30;33.23;;;1.30;99.90;;;;;;5022927;28;20026;-78
2022/12/19 10:56:26;;;;;;;69.30;36.23;;;1.30;99.90;;;;;;5021992;28;20192;-79
2022/12/19 10:58:57;;;;;;;71.37;39.50;;;1.40;99.90;;;;;;5021517;28;20024;-79
2022/12/19 11:01:33;;;;;;;76.73;41.00;;;1.40;99.90;;;;;;5009308;28;20739;-79
2022/12/19 11:04:21;;;;;;;77.40;41.53;;;1.40;99.90;;;;;;5022127;28;20042;-79
2022/12/19 11:06:51;;;;;;;68.90;34.90;;;1.40;99.90;;;;;;5021510;28;20049;-79
2022/12/19 11:09:37;;;;;;;67.10;35.27;;;1.40;99.90;;;;;;5026128;28;20032;-79
2022/12/19 11:12:11;;;;;;;64.10;34.88;;;1.40;99.90;;;;;;5025434;28;20068;-79
2022/12/19 11:14:39;;;;;;;64.37;32.23;;;1.40;99.90;;;;;;5028686;28;20844;-79
2022/12/19 11:17:05;;;;;;;67.60;33.37;;;1.50;99.90;;;;;;5026792;28;20033;-79
2022/12/19 11:19:35;;;;;;;64.53;33.43;;;1.40;99.90;;;;;;5026351;28;20021;-79
2022/12/19 11:22:15;;;;;;;64.43;33.07;;;1.40;99.90;;;;;;5027328;28;20134;-79
2022/12/19 11:24:47;;;;;;;62.50;33.67;;;1.40;99.90;;;;;;5015113;28;21500;-79
2022/12/19 11:27:51;;;;;;;59.07;33.63;;;1.50;99.90;;;;;;5027086;28;20413;-79
2022/12/19 11:30:27;;;;;;;65.83;33.17;;;1.50;99.90;;;;;;5023685;28;20052;-79
2022/12/19 11:33:12;;;;;;;76.63;39.87;;;1.50;99.90;;;;;;5026244;28;20473;-79
2022/12/19 11:35:44;;;;;;;;;;;1.50;99.90;;;;;;5026979;28;20053;-79
2022/12/19 11:38:13;;;;;;;64.40;33.47;;;1.50;99.90;;;;;;5024909;28;19909;-79
2022/12/19 11:40:46;;;;;;;77.83;40.33;;;1.50;99.90;;;;;;5024556;28;20447;-79
2022/12/19 11:43:21;;;;;;;69.40;37.47;;;1.60;99.90;;;;;;5018597;28;20041;-79
2022/12/19 11:45:59;;;;;;;93.10;48.10;;;1.70;99.90;;;;;;5020668;28;20036;-79
2022/12/19 11:48:27;;;;;;;63.53;34.10;;;1.80;99.90;;;;;;5021016;28;20029;-79
2022/12/19 11:51:00;;;;;;;56.30;30.37;;;1.90;99.90;;;;;;5038344;28;20674;-79
2022/12/19 11:53:49;;;;;;;55.70;30.90;;;2.00;99.90;;;;;;5020980;28;20149;-79
2022/12/19 11:56:20;;;;;;;57.37;31.10;;;2.10;99.90;;;;;;5020110;28;20072;-79
2022/12/19 11:58:50;;;;;;;54.80;30.37;;;2.10;99.90;;;;;;5020378;28;20718;-79
2022/12/19 12:01:30;;;;;;;62.90;31.93;;;2.10;99.90;;;;;;5021161;28;20025;-79
2022/12/19 12:04:17;;;;;;;70.60;36.60;;;2.20;99.90;;;;;;5020096;28;20714;-79
2022/12/19 12:06:52;;;;;;;60.60;32.70;;;2.10;99.90;;;;;;5007123;28;20045;-79
2022/12/19 12:09:34;;;;;;;59.40;31.83;;;2.00;99.90;;;;;;5020187;28;20041;-79
2022/12/19 12:12:21;;;;;;;58.13;32.20;;;2.00;99.90;;;;;;5019700;28;20056;-78
2022/12/19 12:15:01;;;;;;;66.80;33.60;;;1.90;99.90;;;;;;5021683;28;20026;-79
2022/12/19 12:17:38;;;;;;;54.70;30.37;;;1.90;99.90;;;;;;5021000;28;20040;-79
2022/12/19 12:20:29;;;;;;;119.77;53.17;;;1.90;99.90;;;;;;5020073;28;20167;-79
2022/12/19 12:23:22;;;;;;;92.60;42.53;;;1.90;99.90;;;;;;5020254;28;20025;-79
2022/12/19 12:25:53;;;;;;;60.07;30.97;;;1.90;99.90;;;;;;5019573;28;20021;-79
2022/12/19 12:28:19;;;;;;;67.17;36.93;;;1.90;99.90;;;;;;5018363;28;20025;-79
2022/12/19 12:30:58;;;;;;;50.07;28.83;;;1.90;99.90;;;;;;5005554;28;20052;-79
2022/12/19 12:33:42;;;;;;;58.23;32.03;;;1.90;99.90;;;;;;5017799;28;20064;-79
2022/12/19 12:36:18;;;;;;;52.50;29.40;;;2.00;99.90;;;;;;5005384;28;20757;-79
2022/12/19 12:38:53;;;;;;;54.00;29.43;;;2.00;99.90;;;;;;5017525;28;20025;-79
2022/12/19 12:42:03;;;;;;;53.13;29.27;;;2.00;99.90;;;;;;5018153;28;20022;-79
2022/12/19 12:44:40;;;;;;;61.37;32.10;;;2.00;99.90;;;;;;5037704;28;20033;-79
2022/12/19 12:47:20;;;;;;;66.97;33.17;;;2.10;99.90;;;;;;5020213;28;21439;-79
2022/12/19 12:50:02;;;;;;;59.87;33.20;;;2.10;99.90;;;;;;5018982;28;20029;-79
2022/12/19 12:52:39;;;;;;;60.37;33.50;;;2.10;99.90;;;;;;5018760;28;20028;-79
2022/12/19 12:55:16;;;;;;;54.47;31.33;;;2.20;99.90;;;;;;5023520;28;20028;-80